createdAt,value
2018-03-20T00:02:20.814Z,73.80
2018-03-20T00:04:48.276Z,73.70
2018-03-20T00:07:15.767Z,70.70
2018-03-20T00:09:43.198Z,71.30
2018-03-20T00:12:10.645Z,70.20
2018-03-20T00:14:38.187Z,70.70
2018-03-20T00:17:06.666Z,69.60
2018-03-20T00:19:34.102Z,69.60
2018-03-20T00:22:02.330Z,69.20
2018-03-20T00:24:29.770Z,68.80
2018-03-20T00:26:57.211Z,69.70
2018-03-20T00:29:25.424Z,70.30
2018-03-20T00:31:52.860Z,70.20
2018-03-20T00:34:20.319Z,69.90
2018-03-20T00:36:47.780Z,70.60
2018-03-20T00:39:15.222Z,70.70
2018-03-20T00:41:43.071Z,71.40
2018-03-20T00:44:10.532Z,71.20
2018-03-20T00:46:37.990Z,70.90
2018-03-20T00:49:06.227Z,72.20
2018-03-20T00:51:33.683Z,71.10
2018-03-20T00:54:01.891Z,72.00
2018-03-20T00:56:29.359Z,71.30
2018-03-20T00:58:56.815Z,71.70
2018-03-20T01:01:24.661Z,72.20
2018-03-20T01:03:52.506Z,73.40
2018-03-20T01:06:20.370Z,72.50
2018-03-20T01:08:48.599Z,72.50
2018-03-20T01:11:16.839Z,72.50
2018-03-20T01:13:44.699Z,72.30
2018-03-20T01:16:12.591Z,71.30
2018-03-20T01:18:40.793Z,71.60
2018-03-20T01:21:08.655Z,71.80
2018-03-20T01:23:36.509Z,72.60
2018-03-20T01:26:04.702Z,73.00
2018-03-20T01:28:32.948Z,71.80
2018-03-20T01:31:00.783Z,72.30
2018-03-20T01:33:28.641Z,74.10
2018-03-20T01:35:56.855Z,74.80
2018-03-20T01:38:24.743Z,75.10
2018-03-20T01:40:52.965Z,75.90
2018-03-20T01:43:20.888Z,75.70
2018-03-20T01:45:48.332Z,76.10
2018-03-20T01:48:15.793Z,75.70
2018-03-20T01:50:43.268Z,74.40
2018-03-20T01:53:18.553Z,73.90
2018-03-20T01:55:46.020Z,74.40
2018-03-20T01:58:13.459Z,74.50
2018-03-20T02:00:40.903Z,73.70
2018-03-20T02:03:09.127Z,74.80
2018-03-20T02:05:36.559Z,74.60
2018-03-20T02:08:04.780Z,74.40
2018-03-20T02:10:32.224Z,74.40
2018-03-20T02:13:00.443Z,75.00
2018-03-20T02:15:28.811Z,75.00
2018-03-20T02:17:56.250Z,74.70
2018-03-20T02:20:24.483Z,75.40
2018-03-20T02:22:51.952Z,74.40
2018-03-20T02:25:19.409Z,74.00
2018-03-20T02:27:46.866Z,74.40
2018-03-20T02:30:14.312Z,74.10
2018-03-20T02:32:41.747Z,74.60
2018-03-20T02:35:09.196Z,74.00
2018-03-20T02:37:36.647Z,76.20
2018-03-20T02:40:04.119Z,77.30
2018-03-20T02:42:31.574Z,78.20
2018-03-20T02:44:59.014Z,78.10
2018-03-20T02:47:27.232Z,78.70
2018-03-20T02:49:54.684Z,78.90
2018-03-20T02:52:22.882Z,78.40
2018-03-20T02:54:50.349Z,76.80
2018-03-20T02:57:18.564Z,77.90
2018-03-20T02:59:46.022Z,77.90
2018-03-20T03:02:13.468Z,78.40
2018-03-20T03:04:41.692Z,79.80
2018-03-20T03:07:09.140Z,78.80
2018-03-20T03:09:36.598Z,79.20
2018-03-20T03:12:04.055Z,78.80
2018-03-20T03:14:32.293Z,78.20
2018-03-20T03:16:59.777Z,75.70
2018-03-20T03:19:27.219Z,75.50
2018-03-20T03:21:54.673Z,74.00
2018-03-20T03:24:22.135Z,74.60
2018-03-20T03:26:49.579Z,75.30
2018-03-20T03:29:17.803Z,77.00
2018-03-20T03:31:45.252Z,76.70
2018-03-20T03:34:12.703Z,76.70
2018-03-20T03:36:40.914Z,79.20
2018-03-20T03:39:08.374Z,79.00
2018-03-20T03:41:36.590Z,77.20
2018-03-20T03:44:04.059Z,75.80
2018-03-20T03:46:32.643Z,73.20
2018-03-20T03:49:00.104Z,73.00
2018-03-20T03:51:27.556Z,72.60
2018-03-20T03:53:55.014Z,73.10
2018-03-20T03:56:23.227Z,71.40
2018-03-20T03:58:50.680Z,69.70
2018-03-20T04:01:18.904Z,68.40
2018-03-20T04:03:46.389Z,67.20
2018-03-20T04:06:13.848Z,68.40
2018-03-20T04:08:41.703Z,68.90
2018-03-20T04:11:09.162Z,69.70
2018-03-20T04:13:36.621Z,69.00
2018-03-20T04:16:04.831Z,70.90
2018-03-20T04:18:32.287Z,71.20
2018-03-20T04:20:59.818Z,72.30
2018-03-20T04:23:27.976Z,71.70
2018-03-20T04:25:55.436Z,71.90
2018-03-20T04:28:22.887Z,73.20
2018-03-20T04:30:50.328Z,73.30
2018-03-20T04:33:17.816Z,73.70
2018-03-20T04:35:45.274Z,73.30
2018-03-20T04:38:12.761Z,73.90
2018-03-20T04:40:40.211Z,73.90
2018-03-20T04:43:07.658Z,72.50
2018-03-20T04:45:35.907Z,73.00
2018-03-20T04:48:03.372Z,73.00
2018-03-20T04:50:30.840Z,72.20
2018-03-20T04:52:58.283Z,72.70
2018-03-20T04:55:25.740Z,71.90
2018-03-20T04:57:53.988Z,72.40
2018-03-20T05:00:21.440Z,72.30
2018-03-20T05:02:48.888Z,72.40
2018-03-20T05:05:16.359Z,71.70
2018-03-20T05:07:43.802Z,71.70
2018-03-20T05:10:11.263Z,71.10
2018-03-20T05:12:39.535Z,71.40
2018-03-20T05:15:06.991Z,70.80
2018-03-20T05:17:34.438Z,71.30
2018-03-20T05:23:26.247Z,71.60
2018-03-20T05:25:53.723Z,71.20
2018-03-20T05:28:21.928Z,72.00
2018-03-20T05:30:49.783Z,70.80
2018-03-20T05:33:18.019Z,71.30
2018-03-20T05:35:46.583Z,72.00
2018-03-20T05:38:14.032Z,70.90
2018-03-20T05:40:41.542Z,71.20
2018-03-20T05:43:08.979Z,72.10
2018-03-20T05:45:37.197Z,71.60
2018-03-20T05:51:20.554Z,71.50
2018-03-20T05:53:48.807Z,72.00
2018-03-20T05:56:16.264Z,72.10
2018-03-20T05:58:43.712Z,72.60
2018-03-20T06:01:11.184Z,72.20
2018-03-20T06:03:38.631Z,72.40
2018-03-20T06:06:06.072Z,73.10
2018-03-20T06:08:34.320Z,74.00
2018-03-20T06:11:01.758Z,74.60
2018-03-20T06:13:29.199Z,74.90
2018-03-20T06:15:57.428Z,74.80
2018-03-20T06:18:24.884Z,75.90
2018-03-20T06:20:52.341Z,76.40
2018-03-20T06:23:19.808Z,77.70
2018-03-20T06:25:47.272Z,78.20
2018-03-20T06:28:14.715Z,79.00
2018-03-20T06:30:42.922Z,79.20
2018-03-20T06:33:10.382Z,79.00
2018-03-20T06:35:38.604Z,80.90
2018-03-20T06:38:06.058Z,81.30
2018-03-20T06:40:33.524Z,81.70
2018-03-20T06:43:01.004Z,82.90
2018-03-20T06:45:28.458Z,83.40
2018-03-20T06:47:55.912Z,85.40
2018-03-20T06:50:23.349Z,86.60
2018-03-20T06:52:50.915Z,86.40
2018-03-20T06:55:18.356Z,86.60
2018-03-20T06:57:45.815Z,86.30
2018-03-20T07:00:13.274Z,86.40
2018-03-20T07:02:40.785Z,87.50
2018-03-20T07:05:08.280Z,87.90
2018-03-20T07:07:35.742Z,88.30
2018-03-20T07:10:03.211Z,89.40
2018-03-20T07:12:30.667Z,90.00
2018-03-20T07:14:58.113Z,90.20
2018-03-20T07:17:25.575Z,91.70
2018-03-20T07:19:53.048Z,92.40
2018-03-20T07:22:20.491Z,92.60
2018-03-20T07:24:47.999Z,93.40
2018-03-20T07:27:15.514Z,94.00
2018-03-20T07:29:43.212Z,94.00
2018-03-20T07:32:10.668Z,94.10
2018-03-20T07:34:38.121Z,94.20
2018-03-20T07:37:05.607Z,94.40
2018-03-20T07:39:33.061Z,94.30
2018-03-20T07:42:01.295Z,94.30
2018-03-20T07:44:28.756Z,94.10
2018-03-20T07:46:56.224Z,94.20
2018-03-20T07:49:23.687Z,94.00
2018-03-20T07:51:51.175Z,94.20
2018-03-20T07:54:18.663Z,94.40
2018-03-20T07:56:46.134Z,94.60
2018-03-20T07:59:13.572Z,94.60
2018-03-20T08:01:41.087Z,94.60
2018-03-20T08:04:08.896Z,94.10
2018-03-20T08:06:36.398Z,94.40
2018-03-20T08:09:04.725Z,93.90
2018-03-20T08:11:32.960Z,94.30
2018-03-20T08:14:01.411Z,93.70
2018-03-20T08:16:29.624Z,93.90
2018-03-20T08:18:57.119Z,93.50
2018-03-20T08:21:24.578Z,93.40
2018-03-20T08:23:52.044Z,93.50
2018-03-20T08:26:19.511Z,93.80
2018-03-20T08:28:47.740Z,93.50
2018-03-20T08:31:15.203Z,93.60
2018-03-20T08:33:42.680Z,93.80
2018-03-20T08:36:10.135Z,93.80
2018-03-20T08:38:37.988Z,93.90
2018-03-20T08:41:05.422Z,94.20
2018-03-20T08:43:32.889Z,94.40
2018-03-20T08:46:01.099Z,94.10
2018-03-20T08:48:29.015Z,94.10
2018-03-20T08:50:56.477Z,94.20
2018-03-20T08:53:23.939Z,93.90
2018-03-20T08:55:51.403Z,94.10
2018-03-20T08:58:19.252Z,94.30
2018-03-20T09:00:46.777Z,94.20
2018-03-20T09:03:14.235Z,94.40
2018-03-20T09:05:41.693Z,94.60
2018-03-20T09:08:09.135Z,94.80
2018-03-20T09:10:36.587Z,95.00
2018-03-20T09:13:04.812Z,95.10
2018-03-20T09:15:32.243Z,95.10
2018-03-20T09:18:00.466Z,95.50
2018-03-20T09:20:27.923Z,95.40
2018-03-20T09:22:55.384Z,95.40
2018-03-20T09:25:22.839Z,95.50
2018-03-20T09:27:50.296Z,95.80
2018-03-20T09:30:18.530Z,95.40
2018-03-20T09:32:46.005Z,94.60
2018-03-20T09:35:13.456Z,94.90
2018-03-20T09:37:40.908Z,94.30
2018-03-20T09:40:08.395Z,93.20
2018-03-20T09:42:35.892Z,91.90
2018-03-20T09:45:03.347Z,92.00
2018-03-20T09:47:30.839Z,91.00
2018-03-20T09:49:58.364Z,90.90
2018-03-20T09:52:25.828Z,91.10
2018-03-20T09:54:53.329Z,90.00
2018-03-20T09:57:20.772Z,90.30
2018-03-20T09:59:48.219Z,91.00
2018-03-20T10:02:16.852Z,92.00
2018-03-20T10:04:44.311Z,92.00
2018-03-20T10:07:11.809Z,92.50
2018-03-20T10:09:39.688Z,92.80
2018-03-20T10:12:11.016Z,93.10
2018-03-20T10:14:38.576Z,92.50
2018-03-20T10:17:06.010Z,92.10
2018-03-20T10:19:33.526Z,92.00
2018-03-20T10:22:01.741Z,90.30
2018-03-20T10:24:29.194Z,89.50
2018-03-20T10:26:57.398Z,88.50
2018-03-20T10:29:24.852Z,85.30
2018-03-20T10:31:52.323Z,85.90
2018-03-20T10:34:19.791Z,85.40
2018-03-20T10:36:47.637Z,86.80
2018-03-20T10:39:15.166Z,87.40
2018-03-20T10:41:43.424Z,84.40
2018-03-20T10:44:10.876Z,84.90
2018-03-20T10:46:38.343Z,75.50
2018-03-20T10:49:06.944Z,75.60
2018-03-20T10:51:35.155Z,74.00
2018-03-20T10:54:02.643Z,75.70
2018-03-20T10:56:30.091Z,73.90
2018-03-20T10:58:57.547Z,74.90
2018-03-20T11:01:32.095Z,77.70
2018-03-20T11:03:59.544Z,76.50
2018-03-20T11:06:27.391Z,73.70
2018-03-20T11:08:55.311Z,72.60
2018-03-20T11:11:22.755Z,65.70
2018-03-20T11:13:50.203Z,67.00
2018-03-20T11:16:18.428Z,67.80
2018-03-20T11:18:45.885Z,64.30
2018-03-20T11:21:13.369Z,62.30
2018-03-20T11:23:40.832Z,62.50
2018-03-20T11:26:08.284Z,59.00
2018-03-20T11:28:35.737Z,58.10
2018-03-20T11:31:03.947Z,62.20
2018-03-20T11:33:31.395Z,63.30
2018-03-20T11:35:58.910Z,60.80
2018-03-20T11:38:26.354Z,60.10
2018-03-20T11:40:53.816Z,56.70
2018-03-20T11:43:21.271Z,55.30
2018-03-20T11:45:48.725Z,57.40
2018-03-20T11:48:16.197Z,56.90
2018-03-20T11:50:44.413Z,58.80
2018-03-20T11:53:11.852Z,58.50
2018-03-20T11:55:39.319Z,52.20
2018-03-20T11:58:07.528Z,49.30
2018-03-20T12:00:34.970Z,49.30
2018-03-20T12:03:03.214Z,47.40
2018-03-20T12:05:30.655Z,47.20
2018-03-20T12:07:58.539Z,46.20
2018-03-20T12:10:25.982Z,46.60
2018-03-20T12:12:53.438Z,47.00
2018-03-20T12:15:21.646Z,44.60
2018-03-20T12:17:49.858Z,45.50
2018-03-20T12:20:17.332Z,45.40
2018-03-20T12:22:45.163Z,43.40
2018-03-20T12:25:12.648Z,41.20
2018-03-20T12:27:40.058Z,40.10
2018-03-20T12:32:57.579Z,35.40
2018-03-20T12:35:25.783Z,35.60
2018-03-20T12:37:53.210Z,36.80
2018-03-20T12:40:20.655Z,35.60
2018-03-20T12:42:48.110Z,35.60
2018-03-20T12:45:15.543Z,34.00
2018-03-20T12:47:42.975Z,32.20
2018-03-20T12:50:10.414Z,33.90
2018-03-20T12:52:37.862Z,34.00
2018-03-20T12:55:05.308Z,32.00
2018-03-20T12:57:33.532Z,35.00
2018-03-20T13:00:00.990Z,34.00
2018-03-20T13:02:28.453Z,35.10
2018-03-20T13:04:55.907Z,35.50
2018-03-20T13:07:23.356Z,33.90
2018-03-20T13:09:50.807Z,32.50
2018-03-20T13:12:18.276Z,31.10
2018-03-20T13:14:45.720Z,31.40
2018-03-20T13:17:13.159Z,31.60
2018-03-20T13:19:40.595Z,30.60
2018-03-20T13:22:08.045Z,29.60
2018-03-20T13:24:35.491Z,30.30
2018-03-20T13:27:02.938Z,31.20
2018-03-20T13:29:30.367Z,28.80
2018-03-20T13:31:57.861Z,32.00
2018-03-20T13:34:26.068Z,34.10
2018-03-20T13:36:53.512Z,30.10
2018-03-20T13:39:21.747Z,30.40
2018-03-20T13:41:49.191Z,28.60
2018-03-20T13:44:16.639Z,29.50
2018-03-20T13:46:44.075Z,29.70
2018-03-20T13:49:11.541Z,28.80
2018-03-20T13:51:39.010Z,29.30
2018-03-20T13:54:06.451Z,29.20
2018-03-20T13:56:33.912Z,29.80
2018-03-20T13:59:01.347Z,29.60
2018-03-20T14:01:29.547Z,32.50
2018-03-20T14:03:57.000Z,32.20
2018-03-20T14:06:24.843Z,29.70
2018-03-20T14:08:53.040Z,27.70
2018-03-20T14:11:20.562Z,29.80
2018-03-20T14:13:48.013Z,29.90
2018-03-20T14:16:15.459Z,26.50
2018-03-20T14:18:43.655Z,27.50
2018-03-20T14:21:11.128Z,28.10
2018-03-20T14:23:38.587Z,29.50
2018-03-20T14:26:06.829Z,27.90
2018-03-20T14:28:34.287Z,27.70
2018-03-20T14:31:01.731Z,28.10
2018-03-20T14:33:29.166Z,28.50
2018-03-20T14:35:56.611Z,27.50
2018-03-20T14:38:24.048Z,24.20
2018-03-20T14:40:51.499Z,24.90
2018-03-20T14:43:18.965Z,27.40
2018-03-20T14:45:46.440Z,28.20
2018-03-20T14:48:14.645Z,29.50
2018-03-20T14:50:42.106Z,27.30
2018-03-20T14:53:09.563Z,26.90
2018-03-20T14:55:37.004Z,25.80
2018-03-20T14:58:04.975Z,25.00
2018-03-20T15:00:32.428Z,25.00
2018-03-20T15:03:00.708Z,25.20
2018-03-20T15:05:28.149Z,24.90
2018-03-20T15:07:55.593Z,25.90
2018-03-20T15:10:23.038Z,25.00
2018-03-20T15:12:50.503Z,24.40
2018-03-20T15:15:17.959Z,24.50
2018-03-20T15:17:45.425Z,24.30
2018-03-20T15:20:13.250Z,24.00
2018-03-20T15:22:40.701Z,24.50
2018-03-20T15:25:08.916Z,27.00
2018-03-20T15:27:36.370Z,25.90
2018-03-20T15:30:04.587Z,26.10
2018-03-20T15:32:32.025Z,23.40
2018-03-20T15:35:00.218Z,23.70
2018-03-20T15:37:28.458Z,23.60
2018-03-20T15:39:55.901Z,23.30
2018-03-20T15:42:23.357Z,22.40
2018-03-20T15:44:50.798Z,22.50
2018-03-20T15:47:19.018Z,22.80
2018-03-20T15:49:46.485Z,22.60
2018-03-20T15:52:13.979Z,23.70
2018-03-20T15:54:41.425Z,24.20
2018-03-20T15:57:08.883Z,23.60
2018-03-20T15:59:36.335Z,23.20
2018-03-20T16:02:03.807Z,22.50
2018-03-20T16:04:31.235Z,23.20
2018-03-20T16:06:58.683Z,25.00
2018-03-20T16:09:26.139Z,24.30
2018-03-20T16:11:53.582Z,24.60
2018-03-20T16:14:21.799Z,23.50
2018-03-20T16:16:49.293Z,23.10
2018-03-20T16:19:16.721Z,23.90
2018-03-20T16:21:44.158Z,24.50
2018-03-20T16:24:11.606Z,23.10
2018-03-20T16:26:39.064Z,23.70
2018-03-20T16:29:06.506Z,24.40
2018-03-20T16:31:33.981Z,24.90
2018-03-20T16:34:01.431Z,25.50
2018-03-20T16:36:28.899Z,25.30
2018-03-20T16:38:56.330Z,26.40
2018-03-20T16:41:24.193Z,25.80
2018-03-20T16:43:51.627Z,26.10
2018-03-20T16:46:19.083Z,25.60
2018-03-20T16:48:46.550Z,26.20
2018-03-20T16:51:13.982Z,27.80
2018-03-20T16:53:41.415Z,28.20
2018-03-20T16:56:08.859Z,28.30
2018-03-20T16:58:36.707Z,28.00
2018-03-20T17:01:04.924Z,29.10
2018-03-20T17:03:32.371Z,28.80
2018-03-20T17:05:59.852Z,29.50
2018-03-20T17:08:27.315Z,30.00
2018-03-20T17:10:54.771Z,31.20
2018-03-20T17:13:23.023Z,32.00
2018-03-20T17:15:50.466Z,32.10
2018-03-20T17:18:17.927Z,32.40
2018-03-20T17:20:45.384Z,33.10
2018-03-20T17:23:12.815Z,33.20
2018-03-20T17:25:40.272Z,33.60
2018-03-20T17:28:07.711Z,34.10
2018-03-20T17:30:35.548Z,34.80
2018-03-20T17:33:03.757Z,36.20
2018-03-20T17:35:37.013Z,35.70
2018-03-20T17:38:04.471Z,35.60
2018-03-20T17:40:31.915Z,35.80
2018-03-20T17:42:59.375Z,35.00
2018-03-20T17:45:26.803Z,35.40
2018-03-20T17:47:55.016Z,36.50
2018-03-20T17:50:22.454Z,36.40
2018-03-20T17:52:50.669Z,37.50
2018-03-20T17:55:18.132Z,36.90
2018-03-20T17:57:45.987Z,37.80
2018-03-20T18:00:13.426Z,38.00
2018-03-20T18:02:40.883Z,38.30
2018-03-20T18:05:08.342Z,37.90
2018-03-20T18:07:35.798Z,37.90
2018-03-20T18:10:03.255Z,38.50
2018-03-20T18:12:31.455Z,38.90
2018-03-20T18:14:58.891Z,38.90
2018-03-20T18:17:27.109Z,39.50
2018-03-20T18:19:54.548Z,39.90
2018-03-20T18:22:21.994Z,39.80
2018-03-20T18:24:49.431Z,40.40
2018-03-20T18:27:16.885Z,41.10
2018-03-20T18:29:44.729Z,41.30
2018-03-20T18:32:12.947Z,42.30
2018-03-20T18:34:40.386Z,42.30
2018-03-20T18:37:08.606Z,42.20
2018-03-20T18:39:36.035Z,42.90
2018-03-20T18:42:04.262Z,44.10
2018-03-20T18:44:32.135Z,43.40
2018-03-20T18:46:59.603Z,44.90
2018-03-20T18:49:27.042Z,45.70
2018-03-20T18:51:54.888Z,44.40
2018-03-20T18:54:22.338Z,43.50
2018-03-20T18:56:49.788Z,42.70
2018-03-20T18:59:17.231Z,43.30
2018-03-20T19:01:45.455Z,43.70
2018-03-20T19:04:12.904Z,43.60
2018-03-20T19:06:40.344Z,43.40
2018-03-20T19:09:08.200Z,43.70
2018-03-20T19:11:35.667Z,44.10
2018-03-20T19:14:03.108Z,44.00
2018-03-20T19:16:30.564Z,43.80
2018-03-20T19:18:58.035Z,43.10
2018-03-20T19:21:25.497Z,43.60
2018-03-20T19:23:52.958Z,42.40
2018-03-20T19:26:20.413Z,42.60
2018-03-20T19:28:48.624Z,43.10
2018-03-20T19:31:16.100Z,42.60
2018-03-20T19:33:43.551Z,42.40
2018-03-20T19:36:11.001Z,41.90
2018-03-20T19:38:39.194Z,42.20
2018-03-20T19:41:06.681Z,41.50
2018-03-20T19:43:34.124Z,41.70
2018-03-20T19:46:02.339Z,42.40
2018-03-20T19:48:29.795Z,42.30
2018-03-20T19:50:57.271Z,42.40
2018-03-20T19:53:24.703Z,41.90
2018-03-20T19:55:52.925Z,42.70
2018-03-20T19:58:21.131Z,42.60
2018-03-20T20:00:48.991Z,42.40
2018-03-20T20:03:16.455Z,43.00
2018-03-20T20:05:44.675Z,42.90
2018-03-20T20:08:12.123Z,42.50
2018-03-20T20:10:39.587Z,42.80
2018-03-20T20:13:07.412Z,43.70
2018-03-20T20:15:34.867Z,43.60
2018-03-20T20:18:02.371Z,44.00
2018-03-20T20:20:29.763Z,45.10
2018-03-20T20:22:57.248Z,44.50
2018-03-20T20:25:24.694Z,44.70
2018-03-20T20:27:52.142Z,45.30
2018-03-20T20:30:20.383Z,45.60
2018-03-20T20:32:47.838Z,46.00
2018-03-20T20:35:15.287Z,45.70
2018-03-20T20:37:42.731Z,46.80
2018-03-20T20:40:10.201Z,48.00
2018-03-20T20:42:38.412Z,47.80
2018-03-20T20:45:05.847Z,47.00
2018-03-20T20:47:33.321Z,47.20
2018-03-20T20:50:00.783Z,47.60
2018-03-20T20:52:28.290Z,49.10
2018-03-20T20:54:55.733Z,47.70
2018-03-20T20:57:24.391Z,48.60
2018-03-20T20:59:51.850Z,48.10
2018-03-20T21:02:19.319Z,48.30
2018-03-20T21:04:46.768Z,48.60
2018-03-20T21:07:14.981Z,49.00
2018-03-20T21:09:42.812Z,49.20
2018-03-20T21:12:10.259Z,49.10
2018-03-20T21:14:37.726Z,49.00
2018-03-20T21:17:05.595Z,49.00
2018-03-20T21:19:33.077Z,49.40
2018-03-20T21:22:00.544Z,49.80
2018-03-20T21:24:28.001Z,50.10
2018-03-20T21:26:55.460Z,50.60
2018-03-20T21:29:23.332Z,50.60
2018-03-20T21:31:50.794Z,51.00
2018-03-20T21:34:18.316Z,51.30
2018-03-20T21:36:46.604Z,51.80
2018-03-20T21:39:14.043Z,51.50
2018-03-20T21:41:41.483Z,52.10
2018-03-20T21:44:08.947Z,52.40
2018-03-20T21:46:36.410Z,53.30
2018-03-20T21:49:03.861Z,53.20
2018-03-20T21:51:31.324Z,53.30
2018-03-20T21:53:59.156Z,53.00
2018-03-20T21:56:26.591Z,53.40
2018-03-20T21:58:54.443Z,54.10
2018-03-20T22:01:21.891Z,54.70
2018-03-20T22:03:49.348Z,55.30
2018-03-20T22:06:16.808Z,56.00
2018-03-20T22:08:44.243Z,56.70
2018-03-20T22:11:11.688Z,56.60
2018-03-20T22:13:39.146Z,57.00
2018-03-20T22:16:06.588Z,57.40
2018-03-20T22:18:34.034Z,57.90
2018-03-20T22:21:01.487Z,58.00
2018-03-20T22:23:28.932Z,58.20
2018-03-20T22:25:56.405Z,59.00
2018-03-20T22:28:23.829Z,59.40
2018-03-20T22:30:51.279Z,60.30
2018-03-20T22:33:18.739Z,60.70
2018-03-20T22:35:46.197Z,61.20
2018-03-20T22:38:13.711Z,61.80
2018-03-20T22:40:41.158Z,62.10
2018-03-20T22:43:08.588Z,63.00
2018-03-20T22:45:36.683Z,63.10
2018-03-20T22:48:04.142Z,63.80
2018-03-20T22:50:31.992Z,64.20
2018-03-20T22:53:00.216Z,65.00
2018-03-20T22:55:27.660Z,66.20
2018-03-20T22:57:55.142Z,66.60
2018-03-20T23:00:28.543Z,66.60
2018-03-20T23:02:55.998Z,67.20
2018-03-20T23:05:24.178Z,68.10
2018-03-20T23:07:52.397Z,68.00
2018-03-20T23:10:19.854Z,67.80
2018-03-20T23:12:47.330Z,68.30
2018-03-20T23:15:14.770Z,70.00
2018-03-20T23:17:43.087Z,71.10
2018-03-20T23:20:10.925Z,70.80
2018-03-20T23:22:38.371Z,70.90
2018-03-20T23:25:05.803Z,71.20
2018-03-20T23:27:33.256Z,71.70
2018-03-20T23:30:00.695Z,71.40
2018-03-20T23:32:28.141Z,71.90
2018-03-20T23:34:55.579Z,72.40
2018-03-20T23:37:23.288Z,73.00
2018-03-20T23:39:50.703Z,73.50
2018-03-20T23:42:18.183Z,74.10
2018-03-20T23:44:45.625Z,74.80
2018-03-20T23:47:13.851Z,75.80
2018-03-20T23:49:41.317Z,75.00
2018-03-20T23:52:08.777Z,74.60
2018-03-20T23:54:36.227Z,74.00
2018-03-20T23:57:04.472Z,74.60
2018-03-20T23:59:31.932Z,74.00
